createdAt,value
2018-03-24T00:01:25.798Z,74.30
2018-03-24T00:03:53.308Z,74.10
2018-03-24T00:06:21.636Z,74.10
2018-03-24T00:08:49.924Z,73.80
2018-03-24T00:11:18.544Z,73.70
2018-03-24T00:13:46.248Z,73.90
2018-03-24T00:16:13.746Z,73.80
2018-03-24T00:18:41.271Z,73.90
2018-03-24T00:21:08.776Z,73.70
2018-03-24T00:23:36.418Z,73.50
2018-03-24T00:26:04.715Z,74.00
2018-03-24T00:28:32.254Z,74.00
2018-03-24T00:31:00.546Z,73.70
2018-03-24T00:33:28.837Z,74.20
2018-03-24T00:35:57.112Z,74.20
2018-03-24T00:38:25.389Z,74.00
2018-03-24T00:40:53.738Z,74.10
2018-03-24T00:43:22.694Z,74.00
2018-03-24T00:45:50.944Z,73.80
2018-03-24T00:48:19.210Z,74.30
2018-03-24T00:50:46.729Z,74.10
2018-03-24T00:53:14.236Z,73.50
2018-03-24T00:55:41.790Z,73.40
2018-03-24T00:58:09.314Z,73.40
2018-03-24T01:00:36.857Z,73.50
2018-03-24T01:03:05.106Z,73.20
2018-03-24T01:05:32.694Z,73.80
2018-03-24T01:08:01.194Z,73.00
2018-03-24T01:10:28.796Z,73.00
2018-03-24T01:12:56.882Z,72.70
2018-03-24T01:15:24.394Z,72.90
2018-03-24T01:17:52.753Z,73.00
2018-03-24T01:20:20.271Z,73.00
2018-03-24T01:22:47.810Z,73.20
2018-03-24T01:25:16.095Z,73.00
2018-03-24T01:27:43.610Z,73.00
2018-03-24T01:30:11.127Z,73.00
2018-03-24T01:32:38.662Z,73.00
2018-03-24T01:35:06.237Z,73.00
2018-03-24T01:37:34.494Z,72.60
2018-03-24T01:40:02.027Z,72.60
2018-03-24T01:42:29.522Z,72.70
2018-03-24T01:44:57.028Z,72.80
2018-03-24T01:47:24.557Z,72.60
2018-03-24T01:49:52.118Z,72.40
2018-03-24T01:52:20.376Z,72.50
2018-03-24T01:54:47.897Z,72.40
2018-03-24T01:57:15.388Z,72.20
2018-03-24T01:59:44.392Z,72.30
2018-03-24T02:02:11.912Z,72.30
2018-03-24T02:04:39.401Z,72.40
2018-03-24T02:07:06.988Z,72.50
2018-03-24T02:09:35.470Z,72.40
2018-03-24T02:12:02.971Z,72.10
2018-03-24T02:14:31.236Z,72.80
2018-03-24T02:16:58.774Z,72.40
2018-03-24T02:19:26.266Z,72.40
2018-03-24T02:21:54.695Z,72.40
2018-03-24T02:24:22.178Z,72.50
2018-03-24T02:26:49.722Z,72.50
2018-03-24T02:29:18.854Z,72.50
2018-03-24T02:31:47.274Z,72.80
2018-03-24T02:34:15.545Z,72.80
2018-03-24T02:36:43.121Z,72.80
2018-03-24T02:39:11.424Z,72.50
2018-03-24T02:41:38.924Z,72.50
2018-03-24T02:44:06.440Z,72.50
2018-03-24T02:46:34.189Z,72.30
2018-03-24T02:49:02.480Z,72.80
2018-03-24T02:51:30.782Z,72.60
2018-03-24T02:53:58.276Z,72.60
2018-03-24T02:56:25.790Z,72.70
2018-03-24T02:58:54.073Z,72.60
2018-03-24T03:01:23.050Z,72.60
2018-03-24T03:03:50.550Z,72.80
2018-03-24T03:06:18.324Z,72.80
2018-03-24T03:08:45.831Z,72.20
2018-03-24T03:11:13.348Z,72.30
2018-03-24T03:13:40.880Z,72.70
2018-03-24T03:16:09.244Z,72.90
2018-03-24T03:18:36.734Z,72.80
2018-03-24T03:21:05.004Z,73.00
2018-03-24T03:23:33.276Z,72.90
2018-03-24T03:26:01.276Z,72.80
2018-03-24T03:28:28.790Z,73.00
2018-03-24T03:33:52.792Z,73.10
2018-03-24T03:36:20.324Z,73.40
2018-03-24T03:38:47.812Z,73.60
2018-03-24T03:41:15.320Z,73.70
2018-03-24T03:43:42.850Z,73.50
2018-03-24T03:46:10.430Z,73.80
2018-03-24T03:48:38.708Z,74.10
2018-03-24T03:51:07.000Z,74.10
2018-03-24T03:53:35.268Z,73.80
2018-03-24T03:56:03.680Z,74.60
2018-03-24T03:58:31.230Z,73.80
2018-03-24T04:00:59.518Z,74.00
2018-03-24T04:03:27.031Z,74.00
2018-03-24T04:05:54.668Z,74.20
2018-03-24T04:08:22.240Z,74.20
2018-03-24T04:10:49.771Z,74.00
2018-03-24T04:13:18.037Z,74.40
2018-03-24T04:15:46.304Z,74.50
2018-03-24T04:18:13.832Z,74.50
2018-03-24T04:20:41.392Z,74.40
2018-03-24T04:23:08.912Z,74.30
2018-03-24T04:25:37.181Z,74.60
2018-03-24T04:28:04.704Z,74.60
2018-03-24T04:30:33.041Z,74.70
2018-03-24T04:33:01.315Z,75.00
2018-03-24T04:35:29.611Z,74.90
2018-03-24T04:37:57.873Z,74.80
2018-03-24T04:40:26.203Z,74.90
2018-03-24T04:42:53.707Z,74.90
2018-03-24T04:45:21.232Z,74.70
2018-03-24T04:47:48.934Z,74.80
2018-03-24T04:50:17.236Z,75.10
2018-03-24T04:52:45.513Z,75.20
2018-03-24T04:55:13.790Z,75.20
2018-03-24T04:57:41.292Z,75.10
2018-03-24T05:00:12.750Z,75.40
2018-03-24T05:02:40.281Z,75.20
2018-03-24T05:05:08.625Z,75.50
2018-03-24T05:07:36.130Z,75.30
2018-03-24T05:10:04.393Z,75.60
2018-03-24T05:12:31.902Z,75.60
2018-03-24T05:14:59.472Z,75.70
2018-03-24T05:17:26.985Z,75.40
2018-03-24T05:19:55.377Z,75.00
2018-03-24T05:22:23.652Z,74.70
2018-03-24T05:24:51.917Z,74.80
2018-03-24T05:27:19.437Z,74.80
2018-03-24T05:29:46.950Z,75.00
2018-03-24T05:32:14.466Z,75.00
2018-03-24T05:34:41.976Z,74.90
2018-03-24T05:37:09.604Z,74.70
2018-03-24T05:39:37.322Z,74.70
2018-03-24T05:42:07.014Z,74.60
2018-03-24T05:44:34.542Z,74.60
2018-03-24T05:47:02.091Z,74.50
2018-03-24T05:49:30.332Z,75.00
2018-03-24T05:51:57.824Z,74.30
2018-03-24T05:54:25.452Z,74.40
2018-03-24T05:56:54.728Z,74.30
2018-03-24T05:59:22.261Z,74.40
2018-03-24T06:01:49.762Z,74.10
2018-03-24T06:04:17.272Z,73.90
2018-03-24T06:06:46.029Z,73.80
2018-03-24T06:09:13.547Z,73.70
2018-03-24T06:11:41.044Z,73.40
2018-03-24T06:14:08.549Z,73.60
2018-03-24T06:16:36.850Z,73.40
2018-03-24T06:19:05.216Z,73.60
2018-03-24T06:21:33.536Z,73.20
2018-03-24T06:24:01.047Z,73.10
2018-03-24T06:26:30.047Z,72.40
2018-03-24T06:28:58.209Z,72.50
2018-03-24T06:31:26.188Z,72.60
2018-03-24T06:33:53.729Z,72.80
2018-03-24T06:36:23.994Z,72.10
2018-03-24T06:38:51.598Z,72.10
2018-03-24T06:41:19.160Z,72.70
2018-03-24T06:43:46.703Z,72.90
2018-03-24T06:46:15.013Z,72.10
2018-03-24T06:48:42.553Z,72.20
2018-03-24T06:51:12.548Z,71.80
2018-03-24T06:53:40.038Z,71.80
2018-03-24T06:56:08.291Z,71.50
2018-03-24T06:58:35.810Z,71.30
2018-03-24T07:01:03.429Z,71.00
2018-03-24T07:03:32.719Z,70.50
2018-03-24T07:06:00.250Z,70.80
2018-03-24T07:08:27.750Z,70.50
2018-03-24T07:10:56.007Z,70.70
2018-03-24T07:13:23.520Z,70.30
2018-03-24T07:15:51.774Z,69.60
2018-03-24T07:18:20.062Z,69.40
2018-03-24T07:20:48.628Z,69.40
2018-03-24T07:23:17.588Z,69.40
2018-03-24T07:25:45.196Z,68.40
2018-03-24T07:28:12.679Z,67.90
2018-03-24T07:30:40.977Z,67.30
2018-03-24T07:33:08.479Z,67.30
2018-03-24T07:35:36.620Z,67.00
2018-03-24T07:38:05.153Z,66.20
2018-03-24T07:40:32.667Z,66.20
2018-03-24T07:43:00.172Z,65.90
2018-03-24T07:45:27.681Z,66.70
2018-03-24T07:47:55.930Z,65.60
2018-03-24T07:50:23.460Z,65.50
2018-03-24T07:52:52.004Z,65.20
2018-03-24T07:55:19.604Z,64.90
2018-03-24T07:57:48.147Z,64.90
2018-03-24T08:00:15.641Z,64.70
2018-03-24T08:02:43.926Z,64.10
2018-03-24T08:05:12.292Z,64.10
2018-03-24T08:07:40.548Z,63.60
2018-03-24T08:10:08.072Z,63.50
2018-03-24T08:12:35.599Z,63.40
2018-03-24T08:15:04.081Z,62.80
2018-03-24T08:17:31.630Z,62.70
2018-03-24T08:19:59.113Z,62.50
2018-03-24T08:22:27.380Z,62.30
2018-03-24T08:24:55.766Z,62.70
2018-03-24T08:27:23.291Z,62.10
2018-03-24T08:29:50.936Z,61.90
2018-03-24T08:32:19.175Z,60.90
2018-03-24T08:34:46.684Z,60.90
2018-03-24T08:37:16.036Z,60.90
2018-03-24T08:39:44.323Z,60.80
2018-03-24T08:42:12.596Z,60.20
2018-03-24T08:44:40.470Z,60.20
2018-03-24T08:47:07.963Z,59.70
2018-03-24T08:49:35.640Z,59.60
2018-03-24T08:52:03.140Z,59.50
2018-03-24T08:54:30.852Z,59.30
2018-03-24T08:56:58.618Z,59.30
2018-03-24T08:59:26.902Z,59.20
2018-03-24T09:01:55.179Z,59.20
2018-03-24T09:04:23.445Z,59.20
2018-03-24T09:06:50.962Z,59.10
2018-03-24T09:09:18.528Z,58.30
2018-03-24T09:11:46.049Z,58.40
2018-03-24T09:14:14.328Z,57.90
2018-03-24T09:16:43.910Z,57.20
2018-03-24T09:19:12.184Z,57.10
2018-03-24T09:21:39.732Z,57.00
2018-03-24T09:24:07.224Z,56.80
2018-03-24T09:26:34.824Z,56.70
2018-03-24T09:29:03.127Z,56.50
2018-03-24T09:31:30.628Z,56.50
2018-03-24T09:33:58.112Z,56.40
2018-03-24T09:36:26.399Z,56.20
2018-03-24T09:38:54.761Z,56.20
2018-03-24T09:41:22.282Z,56.20
2018-03-24T09:43:49.810Z,56.10
2018-03-24T09:46:18.114Z,56.10
2018-03-24T09:48:45.631Z,56.10
2018-03-24T09:51:13.182Z,55.60
2018-03-24T09:53:40.726Z,54.50
2018-03-24T09:56:08.514Z,55.30
2018-03-24T09:58:36.044Z,54.80
2018-03-24T10:01:03.574Z,54.20
2018-03-24T10:03:31.824Z,53.90
2018-03-24T10:05:59.487Z,53.80
2018-03-24T10:08:26.994Z,54.00
2018-03-24T10:10:55.328Z,54.40
2018-03-24T10:13:22.770Z,54.40
2018-03-24T10:15:50.304Z,53.70
2018-03-24T10:18:17.798Z,53.90
2018-03-24T10:24:12.522Z,53.50
2018-03-24T10:26:40.031Z,53.60
2018-03-24T10:29:07.568Z,53.00
2018-03-24T10:31:35.998Z,53.10
2018-03-24T10:34:03.524Z,53.10
2018-03-24T10:36:31.808Z,53.40
2018-03-24T10:39:00.133Z,52.30
2018-03-24T10:41:27.693Z,52.30
2018-03-24T10:43:55.196Z,52.60
2018-03-24T10:46:22.715Z,51.10
2018-03-24T10:48:50.192Z,51.20
2018-03-24T10:51:17.932Z,51.30
2018-03-24T10:53:45.537Z,51.00
2018-03-24T10:56:13.476Z,50.10
2018-03-24T10:58:41.274Z,49.70
2018-03-24T11:01:13.658Z,51.20
2018-03-24T11:03:41.171Z,51.30
2018-03-24T11:06:08.705Z,50.30
2018-03-24T11:08:36.244Z,49.00
2018-03-24T11:11:03.762Z,48.90
2018-03-24T11:13:31.297Z,49.60
2018-03-24T11:15:59.574Z,50.00
2018-03-24T11:18:27.082Z,50.00
2018-03-24T11:20:54.553Z,48.70
2018-03-24T11:23:22.508Z,48.20
2018-03-24T11:25:50.004Z,47.70
2018-03-24T11:28:17.545Z,46.90
2018-03-24T11:30:45.060Z,47.50
2018-03-24T11:33:12.563Z,47.50
2018-03-24T11:35:40.064Z,47.50
2018-03-24T11:38:07.596Z,46.20
2018-03-24T11:40:35.123Z,45.80
2018-03-24T11:43:02.650Z,46.10
2018-03-24T11:45:31.324Z,46.40
2018-03-24T11:47:58.856Z,46.00
2018-03-24T11:50:27.136Z,46.70
2018-03-24T11:52:54.672Z,46.70
2018-03-24T11:55:22.191Z,46.80
2018-03-24T11:57:49.791Z,47.20
2018-03-24T12:00:18.080Z,47.90
2018-03-24T12:02:45.624Z,47.70
2018-03-24T12:05:13.152Z,48.00
2018-03-24T12:07:40.658Z,48.60
2018-03-24T12:10:08.152Z,47.60
2018-03-24T12:12:35.802Z,47.80
2018-03-24T12:15:03.325Z,47.50
2018-03-24T12:17:30.843Z,46.60
2018-03-24T12:19:59.140Z,46.50
2018-03-24T12:22:27.398Z,46.50
2018-03-24T12:24:55.736Z,46.30
2018-03-24T12:27:23.255Z,46.10
2018-03-24T12:29:51.555Z,46.80
2018-03-24T12:32:19.092Z,47.50
2018-03-24T12:34:47.702Z,48.60
2018-03-24T12:37:16.958Z,47.60
2018-03-24T12:39:44.498Z,47.60
2018-03-24T12:42:12.019Z,48.00
2018-03-24T12:44:40.301Z,46.60
2018-03-24T12:47:08.575Z,46.20
2018-03-24T12:49:36.864Z,45.40
2018-03-24T12:52:04.420Z,45.40
2018-03-24T12:54:31.910Z,45.30
2018-03-24T12:56:59.418Z,45.60
2018-03-24T12:59:27.057Z,45.40
2018-03-24T13:01:54.587Z,46.10
2018-03-24T13:04:22.125Z,45.60
2018-03-24T13:06:50.402Z,45.50
2018-03-24T13:09:17.969Z,45.60
2018-03-24T13:11:45.478Z,45.70
2018-03-24T13:14:12.970Z,48.20
2018-03-24T13:16:40.708Z,47.70
2018-03-24T13:19:08.226Z,48.50
2018-03-24T13:21:35.746Z,49.00
2018-03-24T13:24:03.380Z,47.80
2018-03-24T13:26:31.068Z,47.10
2018-03-24T13:28:58.593Z,46.00
2018-03-24T13:31:26.140Z,44.70
2018-03-24T13:33:53.709Z,44.30
2018-03-24T13:36:22.009Z,43.40
2018-03-24T13:38:50.320Z,43.80
2018-03-24T13:41:18.356Z,43.80
2018-03-24T13:43:45.904Z,43.80
2018-03-24T13:46:13.562Z,43.70
2018-03-24T13:48:41.258Z,45.70
2018-03-24T13:51:08.769Z,45.40
2018-03-24T13:53:36.282Z,47.50
2018-03-24T13:56:04.099Z,48.50
2018-03-24T13:58:31.610Z,49.00
2018-03-24T14:00:59.233Z,49.60
2018-03-24T14:03:26.800Z,49.80
2018-03-24T14:05:54.280Z,49.70
2018-03-24T14:08:21.797Z,49.10
2018-03-24T14:10:50.066Z,47.50
2018-03-24T14:13:18.979Z,46.40
2018-03-24T14:15:47.251Z,46.40
2018-03-24T14:18:15.620Z,46.30
2018-03-24T14:20:43.904Z,46.20
2018-03-24T14:23:12.194Z,48.30
2018-03-24T14:25:40.474Z,48.80
2018-03-24T14:28:08.758Z,49.00
2018-03-24T14:30:37.012Z,49.20
2018-03-24T14:33:05.709Z,49.10
2018-03-24T14:35:33.974Z,49.50
2018-03-24T14:38:01.590Z,49.70
2018-03-24T14:40:29.026Z,50.80
2018-03-24T14:42:57.310Z,51.10
2018-03-24T14:45:25.600Z,51.80
2018-03-24T14:47:55.792Z,52.10
2018-03-24T14:50:23.270Z,52.10
2018-03-24T14:52:51.560Z,52.20
2018-03-24T14:55:19.837Z,52.60
2018-03-24T14:57:48.113Z,52.80
2018-03-24T15:00:16.370Z,52.80
2018-03-24T15:02:44.065Z,53.10
2018-03-24T15:05:12.325Z,53.50
2018-03-24T15:07:39.839Z,53.40
2018-03-24T15:10:07.354Z,53.40
2018-03-24T15:12:35.857Z,53.60
2018-03-24T15:15:03.328Z,53.60
2018-03-24T15:17:31.640Z,53.80
2018-03-24T15:19:59.189Z,53.80
2018-03-24T15:22:26.706Z,53.90
2018-03-24T15:24:54.260Z,53.80
2018-03-24T15:27:21.750Z,54.10
2018-03-24T15:30:01.280Z,54.50
2018-03-24T15:35:31.873Z,54.60
2018-03-24T15:37:59.392Z,54.60
2018-03-24T15:40:27.668Z,54.80
2018-03-24T15:42:55.196Z,54.80
2018-03-24T15:45:24.128Z,55.20
2018-03-24T15:47:51.640Z,55.30
2018-03-24T15:50:19.152Z,55.70
2018-03-24T15:52:46.724Z,55.50
2018-03-24T15:55:14.996Z,55.30
2018-03-24T15:57:43.380Z,55.30
2018-03-24T16:00:10.889Z,55.30
2018-03-24T16:02:38.374Z,55.40
2018-03-24T16:05:05.985Z,55.70
2018-03-24T16:07:34.284Z,55.10
2018-03-24T16:10:01.800Z,55.10
2018-03-24T16:12:29.304Z,55.00
2018-03-24T16:14:57.572Z,55.50
2018-03-24T16:17:25.825Z,55.20
2018-03-24T16:19:53.506Z,55.20
2018-03-24T16:22:20.998Z,55.20
2018-03-24T16:24:48.510Z,55.50
2018-03-24T16:27:16.000Z,55.70
2018-03-24T16:29:44.362Z,55.80
2018-03-24T16:32:12.225Z,55.70
2018-03-24T16:34:39.842Z,56.10
2018-03-24T16:37:09.208Z,56.40
2018-03-24T16:39:36.700Z,56.80
2018-03-24T16:42:04.975Z,57.10
2018-03-24T16:44:33.459Z,57.50
2018-03-24T16:47:01.748Z,57.30
2018-03-24T16:49:30.021Z,57.60
2018-03-24T16:51:58.399Z,58.10
2018-03-24T16:54:26.682Z,57.80
2018-03-24T16:56:54.190Z,57.80
2018-03-24T16:59:21.713Z,57.90
2018-03-24T17:01:49.365Z,58.10
2018-03-24T17:04:16.940Z,58.30
2018-03-24T17:06:45.259Z,58.70
2018-03-24T17:09:12.760Z,58.80
2018-03-24T17:11:40.276Z,58.70
2018-03-24T17:14:07.779Z,59.00
2018-03-24T17:16:35.332Z,59.30
2018-03-24T17:19:02.858Z,59.60
2018-03-24T17:21:30.388Z,59.70
2018-03-24T17:23:57.874Z,60.00
2018-03-24T17:26:26.163Z,60.70
2018-03-24T17:28:54.570Z,60.70
2018-03-24T17:31:22.077Z,60.70
2018-03-24T17:33:49.571Z,60.80
2018-03-24T17:36:17.834Z,60.70
2018-03-24T17:38:45.344Z,60.70
2018-03-24T17:41:12.941Z,60.90
2018-03-24T17:43:40.438Z,61.20
2018-03-24T17:46:08.713Z,61.50
2018-03-24T17:48:37.084Z,61.70
2018-03-24T17:51:04.713Z,61.70
2018-03-24T17:53:32.253Z,61.90
2018-03-24T17:55:59.772Z,62.20
2018-03-24T17:58:27.307Z,62.40
2018-03-24T18:00:55.812Z,63.10
2018-03-24T18:03:23.298Z,63.50
2018-03-24T18:05:51.654Z,64.40
2018-03-24T18:08:19.142Z,64.00
2018-03-24T18:10:46.681Z,64.30
2018-03-24T18:13:14.221Z,64.70
2018-03-24T18:15:41.788Z,64.90
2018-03-24T18:18:09.298Z,65.20
2018-03-24T18:20:37.562Z,65.60
2018-03-24T18:23:05.078Z,65.60
2018-03-24T18:25:32.588Z,65.80
2018-03-24T18:28:00.112Z,65.80
2018-03-24T18:30:28.045Z,66.00
2018-03-24T18:32:56.324Z,66.30
2018-03-24T18:35:24.605Z,66.30
2018-03-24T18:37:53.341Z,67.20
2018-03-24T18:40:20.852Z,66.80
2018-03-24T18:42:48.404Z,67.00
2018-03-24T18:45:15.919Z,67.20
2018-03-24T18:47:43.432Z,67.40
2018-03-24T18:50:11.203Z,67.50
2018-03-24T18:52:39.514Z,67.60
2018-03-24T18:55:07.783Z,68.10
2018-03-24T18:57:36.094Z,68.30
2018-03-24T19:00:03.663Z,68.20
2018-03-24T19:02:31.190Z,68.00
2018-03-24T19:04:59.493Z,68.20
2018-03-24T19:07:27.119Z,68.10
2018-03-24T19:09:55.416Z,68.80
2018-03-24T19:12:23.682Z,69.00
2018-03-24T19:14:51.200Z,68.70
2018-03-24T19:17:18.700Z,68.80
2018-03-24T19:19:46.306Z,69.00
2018-03-24T19:22:13.948Z,69.00
2018-03-24T19:24:41.484Z,69.30
2018-03-24T19:27:09.051Z,69.70
2018-03-24T19:29:37.490Z,69.70
2018-03-24T19:32:05.006Z,69.70
2018-03-24T19:34:32.537Z,69.80
2018-03-24T19:37:00.028Z,69.90
2018-03-24T19:39:27.551Z,69.70
2018-03-24T19:41:55.100Z,69.60
2018-03-24T19:44:23.435Z,69.90
2018-03-24T19:46:50.933Z,69.90
2018-03-24T19:49:18.418Z,70.00
2018-03-24T19:51:45.911Z,70.20
2018-03-24T19:54:13.518Z,70.20
2018-03-24T19:56:41.044Z,70.40
2018-03-24T19:59:08.582Z,70.30
2018-03-24T20:01:36.232Z,70.50
2018-03-24T20:04:04.527Z,70.70
2018-03-24T20:06:32.126Z,70.70
2018-03-24T20:08:59.640Z,70.90
2018-03-24T20:11:27.917Z,71.00
2018-03-24T20:13:56.232Z,71.00
2018-03-24T20:16:23.895Z,71.00
2018-03-24T20:18:51.422Z,71.30
2018-03-24T20:21:20.021Z,71.50
2018-03-24T20:23:48.618Z,71.60
2018-03-24T20:26:16.226Z,71.50
2018-03-24T20:28:44.361Z,71.60
2018-03-24T20:31:11.856Z,71.70
2018-03-24T20:33:39.454Z,71.80
2018-03-24T20:36:07.832Z,71.70
2018-03-24T20:38:35.412Z,71.70
2018-03-24T20:41:03.687Z,71.80
2018-03-24T20:43:31.978Z,71.70
2018-03-24T20:45:59.576Z,71.70
2018-03-24T20:48:27.238Z,71.80
2018-03-24T20:50:56.282Z,71.80
2018-03-24T20:53:23.894Z,71.90
2018-03-24T20:55:51.402Z,72.00
2018-03-24T20:58:18.970Z,72.00
2018-03-24T21:00:46.531Z,72.10
2018-03-24T21:03:14.842Z,72.30
2018-03-24T21:05:43.472Z,72.70
2018-03-24T21:08:10.965Z,72.20
2018-03-24T21:10:38.473Z,72.00
2018-03-24T21:13:06.746Z,72.00
2018-03-24T21:15:35.061Z,72.30
2018-03-24T21:18:02.713Z,72.20
2018-03-24T21:20:31.004Z,72.30
2018-03-24T21:22:58.521Z,72.40
2018-03-24T21:25:26.033Z,72.20
2018-03-24T21:27:53.564Z,71.90
2018-03-24T21:30:21.157Z,72.00
2018-03-24T21:32:48.660Z,72.10
2018-03-24T21:35:16.273Z,71.80
2018-03-24T21:37:43.800Z,71.90
2018-03-24T21:40:11.319Z,71.90
2018-03-24T21:42:38.848Z,72.10
2018-03-24T21:45:06.516Z,72.40
2018-03-24T21:47:34.829Z,72.60
2018-03-24T21:50:02.363Z,72.60
2018-03-24T21:52:30.674Z,73.10
2018-03-24T21:54:58.194Z,73.10
2018-03-24T21:57:26.502Z,74.20
2018-03-24T21:59:54.324Z,73.70
2018-03-24T22:02:21.867Z,73.60
2018-03-24T22:04:49.448Z,73.50
2018-03-24T22:07:16.977Z,73.40
2018-03-24T22:09:44.494Z,73.30
2018-03-24T22:12:12.037Z,73.50
2018-03-24T22:14:40.980Z,73.80
2018-03-24T22:17:09.775Z,73.80
2018-03-24T22:19:38.079Z,74.00
2018-03-24T22:22:05.593Z,73.90
2018-03-24T22:24:34.080Z,74.10
2018-03-24T22:27:02.471Z,74.30
2018-03-24T22:29:30.764Z,74.40
2018-03-24T22:31:59.241Z,74.50
2018-03-24T22:34:26.760Z,74.50
2018-03-24T22:36:54.413Z,74.50
2018-03-24T22:39:24.486Z,74.60
2018-03-24T22:41:52.019Z,74.80
2018-03-24T22:44:19.560Z,74.70
2018-03-24T22:46:47.116Z,74.60
2018-03-24T22:49:14.612Z,74.70
2018-03-24T22:51:42.192Z,74.80
2018-03-24T22:54:09.708Z,74.90
2018-03-24T22:56:37.302Z,75.00
2018-03-24T22:59:04.807Z,75.10
2018-03-24T23:01:33.132Z,75.20
2018-03-24T23:04:00.719Z,75.20
2018-03-24T23:06:28.300Z,75.30
2018-03-24T23:08:55.909Z,75.20
2018-03-24T23:11:23.572Z,75.60
2018-03-24T23:13:51.088Z,75.10
2018-03-24T23:16:18.613Z,75.40
2018-03-24T23:18:46.175Z,75.40
2018-03-24T23:21:13.735Z,75.50
2018-03-24T23:23:41.260Z,75.70
2018-03-24T23:26:08.854Z,75.80
2018-03-24T23:28:36.423Z,76.60
2018-03-24T23:31:03.929Z,76.10
2018-03-24T23:33:31.489Z,76.40
2018-03-24T23:35:59.847Z,76.40
2018-03-24T23:38:27.368Z,76.60
2018-03-24T23:40:56.174Z,77.00
2018-03-24T23:43:25.802Z,77.00
2018-03-24T23:45:53.314Z,77.00
2018-03-24T23:48:20.849Z,77.00
2018-03-24T23:50:48.688Z,77.20
2018-03-24T23:53:18.244Z,77.40
2018-03-24T23:55:45.923Z,77.50
2018-03-24T23:58:16.434Z,77.50
